createdAt,value
2023-07-03T00:00:05.843Z,70.49
2023-07-03T00:01:05.845Z,69.89
2023-07-03T00:02:05.850Z,69.89
2023-07-03T00:03:06.880Z,69.48
2023-07-03T00:04:05.898Z,69.89
2023-07-03T00:05:05.877Z,70.09
2023-07-03T00:06:05.793Z,70.49
2023-07-03T00:07:05.783Z,70.09
2023-07-03T00:08:05.757Z,70.09
2023-07-03T00:09:06.762Z,70.29
2023-07-03T00:10:05.902Z,70.29
2023-07-03T00:11:05.748Z,70.19
2023-07-03T00:12:05.731Z,69.99
2023-07-03T00:13:05.722Z,69.89
2023-07-03T00:14:05.729Z,70.59
2023-07-03T00:15:05.710Z,69.99
2023-07-03T00:16:05.730Z,70.19
2023-07-03T00:17:05.686Z,70.29
2023-07-03T00:18:05.677Z,70.22
2023-07-03T00:19:05.659Z,69.62
2023-07-03T00:20:05.662Z,70.39
2023-07-03T00:21:05.638Z,69.99
2023-07-03T00:22:05.636Z,70.12
2023-07-03T00:23:05.615Z,70.22
2023-07-03T00:24:05.621Z,70.32
2023-07-03T00:25:05.609Z,70.53
2023-07-03T00:26:05.603Z,70.83
2023-07-03T00:27:05.590Z,71.03
2023-07-03T00:28:05.572Z,70.83
2023-07-03T00:29:05.572Z,70.62
2023-07-03T00:30:05.563Z,70.93
2023-07-03T00:31:05.544Z,70.79
2023-07-03T00:32:05.565Z,70.02
2023-07-03T00:33:05.529Z,70.02
2023-07-03T00:34:05.533Z,70.73
2023-07-03T00:35:05.506Z,70.62
2023-07-03T00:36:05.500Z,70.62
2023-07-03T00:37:05.486Z,69.62
2023-07-03T00:38:05.494Z,69.52
2023-07-03T00:39:05.491Z,70.62
2023-07-03T00:40:05.460Z,70.62
2023-07-03T00:41:05.451Z,70.93
2023-07-03T00:42:05.440Z,71.03
2023-07-03T00:43:05.455Z,70.83
2023-07-03T00:44:05.421Z,70.93
2023-07-03T00:45:05.416Z,71.20
2023-07-03T00:46:05.419Z,71.53
2023-07-03T00:47:05.397Z,71.23
2023-07-03T00:48:05.430Z,71.13
2023-07-03T00:49:05.387Z,71.03
2023-07-03T00:50:05.371Z,71.00
2023-07-03T00:51:05.342Z,71.64
2023-07-03T00:52:06.378Z,71.03
2023-07-03T00:53:05.337Z,71.23
2023-07-03T00:54:05.326Z,71.03
2023-07-03T00:55:05.312Z,71.26
2023-07-03T00:56:05.298Z,71.17
2023-07-03T00:57:05.308Z,71.37
2023-07-03T00:58:05.280Z,71.87
2023-07-03T00:59:05.276Z,71.37
2023-07-03T01:00:05.258Z,71.77
2023-07-03T01:01:05.262Z,71.80
2023-07-03T01:02:05.275Z,71.70
2023-07-03T01:03:05.243Z,71.91
2023-07-03T01:04:05.222Z,72.11
2023-07-03T01:05:05.277Z,72.34
2023-07-03T01:06:05.265Z,72.31
2023-07-03T01:07:05.191Z,72.31
2023-07-03T01:08:05.187Z,72.61
2023-07-03T01:09:05.189Z,72.21
2023-07-03T01:10:05.181Z,72.75
2023-07-03T01:11:05.162Z,72.44
2023-07-03T01:12:05.148Z,72.55
2023-07-03T01:13:05.147Z,72.55
2023-07-03T01:14:05.122Z,72.75
2023-07-03T01:15:05.249Z,72.95
2023-07-03T01:16:05.142Z,72.85
2023-07-03T01:17:05.096Z,72.99
2023-07-03T01:18:05.081Z,72.99
2023-07-03T01:19:05.072Z,73.28
2023-07-03T01:20:05.084Z,73.39
2023-07-03T01:21:05.066Z,73.49
2023-07-03T01:22:05.041Z,73.35
2023-07-03T01:23:05.032Z,73.46
2023-07-03T01:24:05.024Z,73.35
2023-07-03T01:25:05.034Z,73.35
2023-07-03T01:26:05.000Z,72.99
2023-07-03T01:27:05.038Z,73.69
2023-07-03T01:28:04.998Z,73.28
2023-07-03T01:29:04.999Z,73.39
2023-07-03T01:30:04.987Z,73.08
2023-07-03T01:31:05.003Z,73.28
2023-07-03T01:32:04.947Z,73.19
2023-07-03T01:33:04.950Z,72.88
2023-07-03T01:34:04.960Z,73.08
2023-07-03T01:35:04.915Z,73.08
2023-07-03T01:36:04.897Z,73.28
2023-07-03T01:37:04.893Z,73.28
2023-07-03T01:38:04.880Z,72.81
2023-07-03T01:39:04.884Z,73.32
2023-07-03T01:40:04.918Z,73.02
2023-07-03T01:41:04.859Z,73.63
2023-07-03T01:42:04.835Z,73.32
2023-07-03T01:43:04.839Z,73.12
2023-07-03T01:44:04.834Z,73.43
2023-07-03T01:45:04.806Z,73.32
2023-07-03T01:46:04.849Z,73.22
2023-07-03T01:47:04.782Z,73.15
2023-07-03T01:48:04.892Z,72.85
2023-07-03T01:49:04.778Z,72.14
2023-07-03T01:50:04.770Z,72.85
2023-07-03T01:51:04.748Z,72.08
2023-07-03T01:52:04.758Z,71.33
2023-07-03T01:53:04.740Z,71.73
2023-07-03T01:54:04.735Z,70.96
2023-07-03T01:55:04.744Z,71.67
2023-07-03T01:56:04.713Z,71.03
2023-07-03T01:57:04.722Z,71.64
2023-07-03T01:58:04.859Z,71.13
2023-07-03T01:59:04.673Z,70.62
2023-07-03T02:00:04.678Z,70.32
2023-07-03T02:01:04.681Z,70.02
2023-07-03T02:02:04.692Z,69.95
2023-07-03T02:03:04.704Z,70.76
2023-07-03T02:04:04.617Z,70.73
2023-07-03T02:05:04.706Z,69.74
2023-07-03T02:06:04.594Z,70.56
2023-07-03T02:07:04.739Z,70.12
2023-07-03T02:08:04.576Z,70.32
2023-07-03T02:09:04.564Z,69.61
2023-07-03T02:10:04.568Z,70.05
2023-07-03T02:11:04.570Z,70.45
2023-07-03T02:12:04.543Z,69.85
2023-07-03T02:13:04.543Z,70.25
2023-07-03T02:14:04.515Z,69.85
2023-07-03T02:15:04.514Z,69.85
2023-07-03T02:16:04.521Z,70.45
2023-07-03T02:17:04.583Z,70.45
2023-07-03T02:18:04.508Z,69.65
2023-07-03T02:19:04.480Z,69.85
2023-07-03T02:20:04.454Z,70.65
2023-07-03T02:21:04.460Z,70.65
2023-07-03T02:22:04.462Z,70.56
2023-07-03T02:23:04.430Z,70.65
2023-07-03T02:24:04.416Z,70.86
2023-07-03T02:25:04.421Z,71.16
2023-07-03T02:26:04.409Z,70.45
2023-07-03T02:27:04.386Z,70.18
2023-07-03T02:28:04.374Z,71.06
2023-07-03T02:29:04.375Z,70.45
2023-07-03T02:30:04.380Z,70.76
2023-07-03T02:31:04.361Z,70.69
2023-07-03T02:32:04.336Z,69.88
2023-07-03T02:33:04.335Z,69.88
2023-07-03T02:34:04.329Z,69.57
2023-07-03T02:35:04.307Z,70.08
2023-07-03T02:36:04.310Z,69.88
2023-07-03T02:37:04.280Z,70.29
2023-07-03T02:38:04.275Z,70.59
2023-07-03T02:39:04.287Z,70.39
2023-07-03T02:40:04.261Z,69.88
2023-07-03T02:41:04.275Z,70.18
2023-07-03T02:42:04.230Z,69.68
2023-07-03T02:43:04.221Z,70.18
2023-07-03T02:44:04.241Z,69.78
2023-07-03T02:45:04.204Z,69.92
2023-07-03T02:46:04.240Z,69.92
2023-07-03T02:47:04.241Z,70.29
2023-07-03T02:48:04.220Z,70.01
2023-07-03T02:49:04.166Z,69.07
2023-07-03T02:50:04.208Z,69.31
2023-07-03T02:51:04.155Z,69.07
2023-07-03T02:52:04.156Z,68.90
2023-07-03T02:53:04.142Z,68.16
2023-07-03T02:54:04.115Z,68.29
2023-07-03T02:55:04.108Z,68.80
2023-07-03T02:56:04.090Z,68.49
2023-07-03T02:57:04.079Z,68.80
2023-07-03T02:58:04.082Z,68.66
2023-07-03T02:59:04.089Z,68.77
2023-07-03T03:00:04.052Z,68.80
2023-07-03T03:01:04.069Z,69.00
2023-07-03T03:02:04.034Z,69.27
2023-07-03T03:03:04.103Z,69.48
2023-07-03T03:04:04.082Z,68.80
2023-07-03T03:05:04.002Z,68.97
2023-07-03T03:06:03.992Z,68.60
2023-07-03T03:07:03.989Z,69.31
2023-07-03T03:08:03.972Z,69.00
2023-07-03T03:09:03.959Z,69.51
2023-07-03T03:10:03.950Z,68.60
2023-07-03T03:11:03.937Z,68.70
2023-07-03T03:12:03.940Z,68.60
2023-07-03T03:13:03.918Z,68.90
2023-07-03T03:14:03.909Z,68.80
2023-07-03T03:15:03.908Z,68.70
2023-07-03T03:16:03.901Z,68.80
2023-07-03T03:17:03.974Z,68.70
2023-07-03T03:18:03.983Z,68.90
2023-07-03T03:19:03.869Z,68.80
2023-07-03T03:20:03.847Z,68.40
2023-07-03T03:21:03.920Z,68.93
2023-07-03T03:22:03.830Z,68.73
2023-07-03T03:23:03.837Z,69.24
2023-07-03T03:24:03.812Z,68.73
2023-07-03T03:25:03.809Z,69.03
2023-07-03T03:26:03.809Z,69.03
2023-07-03T03:27:29.689Z,69.54
2023-07-03T03:28:03.794Z,69.24
2023-07-03T03:29:03.756Z,69.03
2023-07-03T03:30:03.783Z,69.34
2023-07-03T03:31:03.754Z,69.13
2023-07-03T03:32:03.733Z,69.34
2023-07-03T03:33:03.752Z,69.34
2023-07-03T03:34:03.707Z,69.34
2023-07-03T03:35:03.781Z,69.24
2023-07-03T03:36:03.713Z,69.07
2023-07-03T03:37:03.685Z,69.47
2023-07-03T03:38:03.701Z,69.34
2023-07-03T03:39:03.652Z,69.27
2023-07-03T03:40:03.649Z,69.37
2023-07-03T03:41:03.643Z,68.56
2023-07-03T03:42:03.622Z,69.07
2023-07-03T03:43:03.611Z,68.87
2023-07-03T03:44:03.627Z,68.87
2023-07-03T03:45:03.600Z,69.07
2023-07-03T03:46:03.582Z,69.27
2023-07-03T03:47:03.582Z,69.27
2023-07-03T03:48:03.744Z,69.71
2023-07-03T03:49:03.618Z,69.27
2023-07-03T03:50:03.536Z,69.20
2023-07-03T03:51:03.530Z,69.27
2023-07-03T03:52:03.524Z,69.30
2023-07-03T03:53:03.519Z,70.32
2023-07-03T03:54:03.512Z,69.60
2023-07-03T03:55:03.498Z,69.40
2023-07-03T03:56:03.481Z,69.60
2023-07-03T03:57:03.472Z,69.10
2023-07-03T03:58:03.471Z,69.30
2023-07-03T03:59:03.456Z,69.40
2023-07-03T04:00:03.440Z,69.30
2023-07-03T04:01:03.430Z,69.40
2023-07-03T04:02:03.543Z,69.10
2023-07-03T04:03:03.462Z,69.71
2023-07-03T04:04:03.475Z,69.30
2023-07-03T04:05:03.414Z,69.20
2023-07-03T04:06:03.392Z,69.91
2023-07-03T04:07:03.373Z,69.30
2023-07-03T04:08:03.365Z,69.51
2023-07-03T04:09:03.349Z,69.20
2023-07-03T04:10:03.337Z,68.90
2023-07-03T04:11:03.318Z,69.57
2023-07-03T04:12:03.341Z,69.17
2023-07-03T04:13:03.296Z,69.57
2023-07-03T04:14:03.334Z,69.57
2023-07-03T04:15:03.285Z,69.54
2023-07-03T04:16:03.575Z,69.13
2023-07-03T04:17:03.272Z,69.95
2023-07-03T04:18:03.319Z,70.05
2023-07-03T04:19:03.255Z,69.34
2023-07-03T04:20:03.238Z,69.34
2023-07-03T04:21:03.238Z,69.44
2023-07-03T04:22:03.222Z,68.90
2023-07-03T04:23:03.206Z,69.74
2023-07-03T04:24:03.187Z,69.31
2023-07-03T04:25:03.178Z,69.10
2023-07-03T04:26:03.180Z,69.81
2023-07-03T04:27:03.158Z,68.60
2023-07-03T04:28:03.148Z,68.63
2023-07-03T04:29:03.142Z,69.74
2023-07-03T04:30:03.140Z,69.64
2023-07-03T04:31:03.128Z,69.13
2023-07-03T04:32:03.160Z,69.54
2023-07-03T04:33:03.156Z,69.61
2023-07-03T04:34:03.094Z,69.41
2023-07-03T04:35:03.094Z,69.10
2023-07-03T04:36:03.074Z,69.24
2023-07-03T04:37:03.056Z,69.54
2023-07-03T04:38:03.047Z,68.93
2023-07-03T04:39:03.040Z,69.92
2023-07-03T04:40:03.037Z,70.35
2023-07-03T04:41:03.015Z,70.01
2023-07-03T04:42:03.004Z,69.10
2023-07-03T04:43:03.015Z,69.31
2023-07-03T04:44:02.993Z,69.31
2023-07-03T04:45:03.063Z,69.92
2023-07-03T04:46:02.992Z,69.31
2023-07-03T04:47:02.953Z,68.80
2023-07-03T04:48:02.940Z,68.90
2023-07-03T04:49:02.943Z,69.31
2023-07-03T04:50:02.936Z,69.41
2023-07-03T04:51:02.910Z,69.98
2023-07-03T04:52:02.904Z,69.68
2023-07-03T04:53:02.892Z,69.48
2023-07-03T04:54:02.890Z,69.68
2023-07-03T04:55:02.871Z,68.56
2023-07-03T04:56:02.879Z,69.07
2023-07-03T04:57:02.857Z,69.48
2023-07-03T04:58:02.841Z,68.97
2023-07-03T04:59:02.840Z,69.27
2023-07-03T05:00:02.821Z,69.57
2023-07-03T05:01:02.898Z,69.17
2023-07-03T05:02:02.804Z,68.16
2023-07-03T05:03:02.817Z,68.80
2023-07-03T05:04:03.068Z,68.49
2023-07-03T05:05:02.933Z,69.51
2023-07-03T05:06:03.755Z,69.61
2023-07-03T05:07:02.750Z,69.20
2023-07-03T05:08:02.777Z,69.92
2023-07-03T05:09:02.737Z,69.81
2023-07-03T05:10:02.818Z,70.01
2023-07-03T05:11:02.702Z,69.71
2023-07-03T05:12:02.708Z,69.27
2023-07-03T05:13:02.703Z,69.20
2023-07-03T05:14:02.678Z,69.20
2023-07-03T05:15:02.670Z,68.77
2023-07-03T05:16:02.724Z,69.31
2023-07-03T05:17:02.671Z,69.37
2023-07-03T05:18:02.690Z,69.07
2023-07-03T05:19:02.632Z,69.65
2023-07-03T05:20:02.618Z,69.34
2023-07-03T05:21:02.618Z,68.73
2023-07-03T05:22:02.613Z,69.14
2023-07-03T05:23:02.593Z,69.61
2023-07-03T05:24:02.569Z,68.53
2023-07-03T05:25:02.569Z,69.14
2023-07-03T05:26:02.559Z,69.14
2023-07-03T05:27:02.558Z,69.95
2023-07-03T05:28:02.528Z,69.14
2023-07-03T05:29:02.514Z,69.07
2023-07-03T05:30:03.512Z,70.59
2023-07-03T05:31:02.579Z,71.23
2023-07-03T05:32:02.529Z,70.21
2023-07-03T05:33:02.525Z,70.29
2023-07-03T05:34:02.463Z,69.78
2023-07-03T05:35:02.461Z,69.68
2023-07-03T05:36:02.462Z,69.98
2023-07-03T05:37:02.429Z,70.89
2023-07-03T05:38:02.433Z,70.15
2023-07-03T05:39:02.476Z,70.15
2023-07-03T05:40:02.411Z,69.54
2023-07-03T05:41:02.405Z,69.21
2023-07-03T05:42:02.387Z,69.34
2023-07-03T05:43:02.376Z,68.30
2023-07-03T05:44:02.380Z,68.73
2023-07-03T05:45:02.367Z,68.30
2023-07-03T05:46:02.363Z,67.49
2023-07-03T05:47:02.399Z,66.67
2023-07-03T05:48:02.370Z,68.30
2023-07-03T05:49:02.319Z,67.89
2023-07-03T05:50:02.328Z,68.19
2023-07-03T05:51:02.304Z,68.67
2023-07-03T05:52:02.283Z,67.05
2023-07-03T05:53:02.284Z,66.64
2023-07-03T05:54:02.265Z,67.02
2023-07-03T05:55:02.267Z,66.92
2023-07-03T05:56:02.240Z,66.92
2023-07-03T05:57:02.230Z,67.02
2023-07-03T05:58:02.224Z,67.19
2023-07-03T05:59:02.229Z,66.69
2023-07-03T06:00:02.275Z,66.89
2023-07-03T06:01:02.233Z,65.75
2023-07-03T06:02:02.182Z,65.04
2023-07-03T06:03:02.250Z,65.34
2023-07-03T06:04:02.210Z,65.41
2023-07-03T06:05:02.259Z,65.92
2023-07-03T06:06:02.148Z,64.81
2023-07-03T06:07:02.168Z,63.49
2023-07-03T06:08:02.132Z,64.40
2023-07-03T06:09:02.153Z,63.70
2023-07-03T06:10:02.112Z,64.81
2023-07-03T06:11:02.089Z,64.47
2023-07-03T06:12:02.088Z,63.96
2023-07-03T06:13:02.082Z,63.87
2023-07-03T06:14:02.077Z,63.53
2023-07-03T06:15:02.071Z,63.64
2023-07-03T06:16:02.048Z,63.93
2023-07-03T06:17:02.059Z,64.58
2023-07-03T06:18:02.171Z,63.56
2023-07-03T06:19:02.018Z,63.73
2023-07-03T06:20:02.021Z,63.60
2023-07-03T06:21:02.003Z,63.50
2023-07-03T06:22:01.988Z,63.10
2023-07-03T06:23:01.977Z,63.50
2023-07-03T06:24:03.406Z,63.30
2023-07-03T06:25:01.955Z,61.99
2023-07-03T06:26:01.957Z,62.80
2023-07-03T06:27:01.951Z,61.89
2023-07-03T06:28:01.942Z,62.80
2023-07-03T06:29:01.923Z,62.19
2023-07-03T06:30:01.906Z,62.80
2023-07-03T06:31:02.047Z,61.89
2023-07-03T06:32:01.896Z,61.99
2023-07-03T06:33:01.938Z,61.99
2023-07-03T06:34:01.880Z,62.66
2023-07-03T06:35:05.321Z,61.56
2023-07-03T06:36:03.896Z,62.77
2023-07-03T06:37:01.846Z,62.97
2023-07-03T06:38:01.831Z,62.64
2023-07-03T06:39:01.821Z,60.12
2023-07-03T06:40:01.817Z,60.32
2023-07-03T06:41:01.809Z,59.79
2023-07-03T06:42:01.808Z,60.09
2023-07-03T06:43:01.789Z,59.28
2023-07-03T06:44:01.768Z,59.69
2023-07-03T06:45:01.774Z,59.56
2023-07-03T06:46:01.916Z,59.66
2023-07-03T06:47:01.868Z,58.33
2023-07-03T06:48:01.761Z,58.02
2023-07-03T06:49:01.734Z,56.19
2023-07-03T06:50:01.710Z,56.49
2023-07-03T06:51:01.716Z,56.99
2023-07-03T06:52:01.727Z,57.39
2023-07-03T06:53:01.690Z,55.86
2023-07-03T06:54:01.668Z,56.54
2023-07-03T06:55:01.671Z,56.84
2023-07-03T06:56:01.661Z,57.84
2023-07-03T06:57:01.637Z,56.51
2023-07-03T06:58:01.669Z,55.73
2023-07-03T06:59:01.622Z,56.34
2023-07-03T07:00:01.621Z,56.06
2023-07-03T07:01:01.603Z,56.36
2023-07-03T07:02:01.747Z,56.86
2023-07-03T07:03:01.684Z,56.54
2023-07-03T07:04:01.610Z,57.64
2023-07-03T07:05:03.213Z,56.56
2023-07-03T07:06:02.675Z,58.47
2023-07-03T07:07:01.542Z,57.97
2023-07-03T07:08:01.533Z,57.77
2023-07-03T07:09:01.535Z,56.26
2023-07-03T07:10:01.552Z,56.56
2023-07-03T07:11:01.505Z,57.37
2023-07-03T07:12:01.493Z,57.19
2023-07-03T07:13:01.489Z,57.39
2023-07-03T07:14:01.487Z,56.76
2023-07-03T07:15:01.469Z,55.88
2023-07-03T07:16:01.463Z,56.36
2023-07-03T07:17:01.642Z,57.77
2023-07-03T07:18:01.548Z,56.26
2023-07-03T07:19:01.440Z,56.06
2023-07-03T07:20:01.419Z,56.34
2023-07-03T07:21:01.414Z,55.63
2023-07-03T07:22:01.398Z,56.10
2023-07-03T07:23:01.400Z,55.18
2023-07-03T07:24:01.394Z,55.78
2023-07-03T07:25:01.367Z,54.00
2023-07-03T07:26:01.375Z,54.68
2023-07-03T07:27:01.349Z,54.80
2023-07-03T07:28:01.348Z,53.39
2023-07-03T07:29:01.348Z,55.30
2023-07-03T07:30:01.334Z,54.80
2023-07-03T07:31:01.345Z,55.51
2023-07-03T07:32:01.303Z,55.60
2023-07-03T07:33:01.427Z,56.10
2023-07-03T07:34:01.416Z,54.90
2023-07-03T07:35:01.264Z,55.60
2023-07-03T07:36:01.259Z,53.97
2023-07-03T07:37:01.257Z,54.68
2023-07-03T07:38:01.253Z,56.18
2023-07-03T07:39:01.224Z,55.47
2023-07-03T07:40:01.224Z,55.71
2023-07-03T07:41:01.209Z,55.23
2023-07-03T07:42:01.209Z,56.03
2023-07-03T07:43:01.205Z,56.30
2023-07-03T07:44:01.180Z,56.13
2023-07-03T07:45:01.164Z,55.60
2023-07-03T07:46:01.214Z,56.08
2023-07-03T07:47:01.164Z,55.10
2023-07-03T07:48:01.218Z,53.77
2023-07-03T07:49:01.206Z,54.77
2023-07-03T07:50:01.119Z,53.95
2023-07-03T07:51:01.127Z,53.95
2023-07-03T07:52:01.451Z,53.92
2023-07-03T07:53:01.123Z,53.72
2023-07-03T07:54:01.177Z,54.05
2023-07-03T07:55:01.068Z,53.97
2023-07-03T07:56:01.067Z,54.47
2023-07-03T07:57:01.055Z,54.97
2023-07-03T07:58:01.051Z,55.47
2023-07-03T07:59:01.082Z,55.58
2023-07-03T08:00:01.055Z,55.20
2023-07-03T08:01:01.089Z,55.28
2023-07-03T08:02:01.037Z,54.97
2023-07-03T08:03:01.100Z,53.90
2023-07-03T08:04:01.229Z,54.90
2023-07-03T08:05:01.077Z,55.53
2023-07-03T08:06:01.072Z,56.63
2023-07-03T08:07:00.994Z,55.83
2023-07-03T08:08:00.952Z,56.03
2023-07-03T08:09:01.028Z,55.80
2023-07-03T08:10:01.056Z,57.28
2023-07-03T08:11:00.932Z,55.88
2023-07-03T08:12:00.913Z,55.88
2023-07-03T08:13:00.906Z,55.68
2023-07-03T08:14:00.890Z,56.18
2023-07-03T08:15:00.912Z,56.18
2023-07-03T08:16:00.903Z,55.88
2023-07-03T08:17:00.870Z,55.98
2023-07-03T08:18:00.916Z,55.78
2023-07-03T08:19:00.872Z,56.26
2023-07-03T08:20:00.850Z,56.15
2023-07-03T08:21:00.829Z,54.88
2023-07-03T08:22:00.893Z,55.47
2023-07-03T08:23:00.813Z,55.80
2023-07-03T08:24:00.834Z,56.21
2023-07-03T08:25:00.795Z,56.71
2023-07-03T08:26:00.772Z,57.24
2023-07-03T08:27:00.764Z,57.74
2023-07-03T08:28:00.752Z,58.04
2023-07-03T08:29:00.754Z,59.22
2023-07-03T08:30:00.728Z,56.93
2023-07-03T08:31:00.726Z,58.67
2023-07-03T08:32:00.752Z,57.97
2023-07-03T08:33:00.755Z,57.59
2023-07-03T08:34:00.786Z,58.60
2023-07-03T08:38:01.785Z,58.62
2023-07-03T08:39:00.647Z,58.80
2023-07-03T08:40:00.630Z,59.00
2023-07-03T08:41:00.626Z,58.20
2023-07-03T08:42:00.625Z,57.90
2023-07-03T08:43:00.614Z,58.27
2023-07-03T08:44:00.629Z,58.07
2023-07-03T08:45:00.585Z,58.07
2023-07-03T08:46:00.616Z,58.47
2023-07-03T08:47:10.735Z,58.00
2023-07-03T08:48:02.721Z,58.70
2023-07-03T08:49:00.538Z,59.20
2023-07-03T08:50:00.528Z,59.41
2023-07-03T08:51:00.547Z,59.94
2023-07-03T08:52:00.523Z,59.56
2023-07-03T08:53:00.513Z,60.27
2023-07-03T08:54:00.639Z,61.77
2023-07-03T08:55:00.495Z,61.98
2023-07-03T08:56:00.482Z,61.80
2023-07-03T08:57:00.481Z,62.01
2023-07-03T08:58:00.474Z,61.67
2023-07-03T08:59:00.451Z,62.27
2023-07-03T09:00:00.515Z,61.87
2023-07-03T09:01:00.436Z,62.48
2023-07-03T09:02:00.683Z,61.77
2023-07-03T09:03:00.532Z,62.07
2023-07-03T09:04:00.488Z,61.65
2023-07-03T09:05:00.548Z,59.94
2023-07-03T09:06:00.387Z,60.61
2023-07-03T09:07:00.371Z,59.60
2023-07-03T09:08:00.350Z,59.41
2023-07-03T09:09:00.343Z,59.88
2023-07-03T09:10:00.407Z,59.38
2023-07-03T09:11:00.349Z,58.67
2023-07-03T09:12:00.383Z,59.85
2023-07-03T09:13:00.304Z,59.34
2023-07-03T09:14:00.324Z,58.11
2023-07-03T09:15:01.203Z,57.98
2023-07-03T09:16:00.287Z,57.79
2023-07-03T09:17:00.398Z,57.79
2023-07-03T09:18:00.308Z,57.28
2023-07-03T09:19:00.278Z,57.59
2023-07-03T09:20:00.245Z,57.98
2023-07-03T09:21:00.231Z,57.76
2023-07-03T09:22:00.234Z,58.16
2023-07-03T09:23:00.200Z,55.95
2023-07-03T09:24:00.212Z,56.35
2023-07-03T09:25:00.201Z,57.63
2023-07-03T09:26:04.438Z,56.73
2023-07-03T09:27:02.171Z,57.73
2023-07-03T09:28:26.062Z,57.80
2023-07-03T09:29:00.153Z,57.60
2023-07-03T09:30:00.172Z,54.80
2023-07-03T09:31:01.880Z,55.40
2023-07-03T09:32:00.251Z,55.70
2023-07-03T09:33:00.189Z,54.70
2023-07-03T09:34:00.115Z,53.92
2023-07-03T09:35:00.668Z,53.72
2023-07-03T09:36:00.994Z,54.82
2023-07-03T09:37:01.062Z,54.93
2023-07-03T09:38:00.060Z,55.02
2023-07-03T09:39:00.890Z,54.93
2023-07-03T09:40:00.120Z,53.72
2023-07-03T09:41:00.109Z,55.22
2023-07-03T09:42:01.087Z,55.75
2023-07-03T09:43:00.015Z,55.95
2023-07-03T09:44:00.052Z,56.45
2023-07-03T09:44:59.982Z,56.26
2023-07-03T09:45:59.980Z,55.78
2023-07-03T09:46:59.988Z,57.28
2023-07-03T09:48:00.420Z,58.01
2023-07-03T09:48:59.948Z,57.81
2023-07-03T09:49:59.938Z,57.34
2023-07-03T09:51:07.252Z,57.44
2023-07-03T09:52:01.959Z,57.74
2023-07-03T09:53:08.406Z,58.24
2023-07-03T09:54:01.900Z,56.93
2023-07-03T09:54:59.890Z,57.97
2023-07-03T09:55:59.877Z,58.37
2023-07-03T09:57:00.898Z,57.90
2023-07-03T09:57:59.961Z,58.50
2023-07-03T09:58:59.848Z,58.40
2023-07-03T09:59:59.856Z,58.20
2023-07-03T10:01:00.029Z,58.67
2023-07-03T10:04:00.856Z,57.37
2023-07-03T10:07:01.337Z,57.79
2023-07-03T10:07:59.893Z,56.26
2023-07-03T10:12:00.786Z,55.18
2023-07-03T10:12:59.868Z,55.28
2023-07-03T10:13:59.850Z,55.60
2023-07-03T10:14:59.696Z,55.80
2023-07-03T10:15:59.712Z,55.73
2023-07-03T10:16:59.724Z,55.93
2023-07-03T10:17:59.691Z,56.54
2023-07-03T10:18:59.657Z,58.04
2023-07-03T10:19:59.664Z,58.42
2023-07-03T10:20:59.647Z,56.85
2023-07-03T10:21:59.623Z,56.56
2023-07-03T10:22:59.641Z,55.93
2023-07-03T10:23:59.613Z,55.52
2023-07-03T10:24:59.605Z,53.89
2023-07-03T10:25:59.600Z,53.50
2023-07-03T10:26:59.579Z,53.89
2023-07-03T10:27:59.562Z,53.69
2023-07-03T10:28:59.612Z,52.80
2023-07-03T10:29:59.615Z,52.19
2023-07-03T10:30:59.568Z,50.26
2023-07-03T10:31:59.691Z,50.99
2023-07-03T10:32:59.549Z,50.49
2023-07-03T10:34:00.503Z,51.72
2023-07-03T10:34:59.516Z,52.12
2023-07-03T10:35:59.494Z,52.52
2023-07-03T10:36:59.487Z,52.94
2023-07-03T10:37:59.473Z,52.64
2023-07-03T10:38:59.491Z,53.17
2023-07-03T10:39:59.480Z,53.30
2023-07-03T10:40:59.442Z,52.49
2023-07-03T10:41:59.450Z,51.79
2023-07-03T10:42:59.443Z,51.99
2023-07-03T10:43:59.431Z,53.39
2023-07-03T10:44:59.407Z,53.57
2023-07-03T10:45:59.522Z,52.57
2023-07-03T10:46:59.404Z,53.45
2023-07-03T10:47:59.447Z,52.12
2023-07-03T10:48:59.382Z,51.62
2023-07-03T10:49:59.361Z,52.89
2023-07-03T10:50:59.365Z,51.69
2023-07-03T10:51:59.363Z,51.07
2023-07-03T10:52:59.340Z,50.02
2023-07-03T10:53:59.342Z,50.09
2023-07-03T10:54:59.334Z,48.57
2023-07-03T10:55:59.327Z,49.00
2023-07-03T10:56:59.289Z,48.58
2023-07-03T10:57:59.302Z,48.38
2023-07-03T10:58:59.268Z,47.88
2023-07-03T10:59:59.257Z,48.40
2023-07-03T11:00:59.275Z,47.80
2023-07-03T11:01:59.334Z,48.32
2023-07-03T11:02:59.317Z,48.43
2023-07-03T11:04:11.176Z,47.92
2023-07-03T11:05:01.206Z,49.74
2023-07-03T11:05:59.196Z,48.45
2023-07-03T11:06:59.201Z,49.55
2023-07-03T11:07:59.209Z,48.94
2023-07-03T11:08:59.167Z,50.17
2023-07-03T11:09:59.160Z,49.47
2023-07-03T11:10:59.153Z,49.09
2023-07-03T11:11:59.157Z,49.11
2023-07-03T11:12:59.137Z,48.84
2023-07-03T11:13:59.230Z,49.84
2023-07-03T11:14:59.118Z,50.76
2023-07-03T11:15:59.173Z,50.69
2023-07-03T11:16:59.112Z,51.29
2023-07-03T11:20:00.066Z,52.12
2023-07-03T11:23:00.097Z,53.52
2023-07-03T11:23:59.039Z,53.52
2023-07-03T11:24:59.010Z,52.72
2023-07-03T11:27:59.989Z,50.76
2023-07-03T11:28:58.979Z,51.67
2023-07-03T11:29:58.969Z,50.96
2023-07-03T11:30:59.010Z,50.37
2023-07-03T11:31:58.943Z,49.87
2023-07-03T11:32:59.022Z,50.37
2023-07-03T11:35:59.952Z,50.37
2023-07-03T11:39:59.885Z,51.89
2023-07-03T11:40:58.946Z,52.29
2023-07-03T11:43:59.828Z,51.92
2023-07-03T11:44:58.826Z,52.32
2023-07-03T11:45:58.801Z,52.82
2023-07-03T11:46:58.801Z,52.42
2023-07-03T11:47:58.823Z,51.89
2023-07-03T11:48:58.784Z,52.19
2023-07-03T11:49:58.778Z,52.17
2023-07-03T11:50:58.757Z,50.64
2023-07-03T11:51:58.746Z,50.72
2023-07-03T11:52:58.735Z,50.29
2023-07-03T11:53:58.734Z,50.04
2023-07-03T11:54:58.710Z,48.70
2023-07-03T11:55:58.700Z,49.70
2023-07-03T11:56:58.691Z,48.40
2023-07-03T11:58:14.610Z,46.73
2023-07-03T11:59:00.683Z,47.10
2023-07-03T11:59:58.673Z,47.63
2023-07-03T12:00:58.671Z,46.73
2023-07-03T12:01:58.636Z,47.72
2023-07-03T12:02:58.728Z,47.92
2023-07-03T12:03:58.692Z,48.43
2023-07-03T12:04:58.611Z,48.63
2023-07-03T12:05:58.603Z,48.72
2023-07-03T12:06:58.593Z,49.82
2023-07-03T12:07:58.586Z,48.93
2023-07-03T12:08:58.566Z,49.55
2023-07-03T12:09:58.558Z,49.20
2023-07-03T12:10:58.559Z,49.92
2023-07-03T12:11:58.539Z,49.62
2023-07-03T12:12:58.551Z,48.13
2023-07-03T12:13:58.596Z,49.07
2023-07-03T12:14:58.533Z,48.37
2023-07-03T12:15:58.511Z,47.97
2023-07-03T12:16:58.532Z,48.67
2023-07-03T12:17:58.509Z,48.60
2023-07-03T12:18:58.484Z,50.29
2023-07-03T12:19:58.479Z,50.57
2023-07-03T12:20:58.461Z,49.57
2023-07-03T12:21:58.455Z,50.82
2023-07-03T12:22:58.463Z,48.82
2023-07-03T12:23:58.418Z,49.70
2023-07-03T12:24:58.428Z,48.38
2023-07-03T12:25:58.461Z,47.58
2023-07-03T12:26:58.415Z,45.98
2023-07-03T12:27:58.381Z,47.48
2023-07-03T12:28:58.368Z,48.18
2023-07-03T12:29:59.363Z,47.60
2023-07-03T12:30:58.459Z,49.22
2023-07-03T12:31:58.356Z,49.62
2023-07-03T12:32:58.472Z,49.82
2023-07-03T12:33:58.323Z,49.92
2023-07-03T12:34:58.318Z,48.25
2023-07-03T12:35:58.328Z,48.75
2023-07-03T12:37:02.681Z,48.20
2023-07-03T12:37:59.294Z,48.08
2023-07-03T12:38:58.280Z,47.66
2023-07-03T12:39:58.279Z,47.63
2023-07-03T12:40:58.266Z,46.54
2023-07-03T12:41:58.248Z,46.64
2023-07-03T12:42:58.241Z,47.14
2023-07-03T12:44:59.233Z,45.44
2023-07-03T12:45:58.227Z,45.36
2023-07-03T12:46:58.212Z,46.19
2023-07-03T12:47:58.232Z,45.48
2023-07-03T12:48:58.177Z,45.48
2023-07-03T12:49:58.179Z,45.78
2023-07-03T12:50:58.162Z,46.20
2023-07-03T12:51:58.152Z,46.61
2023-07-03T12:52:58.154Z,46.91
2023-07-03T12:53:58.140Z,47.80
2023-07-03T12:55:13.826Z,47.90
2023-07-03T12:56:00.119Z,48.02
2023-07-03T12:56:59.096Z,48.13
2023-07-03T12:57:58.097Z,46.25
2023-07-03T12:58:58.090Z,46.55
2023-07-03T12:59:58.070Z,47.15
2023-07-03T13:00:58.111Z,47.95
2023-07-03T13:01:58.055Z,47.55
2023-07-03T13:02:58.079Z,47.95
2023-07-03T13:03:58.035Z,48.05
2023-07-03T13:04:58.099Z,49.67
2023-07-03T13:05:58.269Z,48.35
2023-07-03T13:06:57.995Z,48.45
2023-07-03T13:07:58.003Z,48.75
2023-07-03T13:08:57.991Z,46.97
2023-07-03T13:09:58.094Z,48.07
2023-07-03T13:10:58.890Z,48.49
2023-07-03T13:11:58.954Z,48.29
2023-07-03T13:12:57.953Z,47.81
2023-07-03T13:13:58.032Z,49.84
2023-07-03T13:14:57.933Z,49.84
2023-07-03T13:15:57.921Z,49.76